NGTA/TRW METAR and TAF weather

Enter ICAO airport designator
Station Type Date Time Source
NGTA METAR 2019/10/21 05:00 UTC NOAA

NGTA 210500Z 05005KT 9999 FEW020 31/23 Q1007


Station Type Date Time Source
NGTA Decoded METAR 2019/10/21 05:00 UTC NOAA

Tarawa, Kiribati (NGTA) 01-21N 172-55E 4M
Oct 21, 2019 - 01:00 AM EDT / 2019.10.21 0500 UTC
Wind: from the NE (050 degrees) at 6 MPH (5 KT):0
Visibility: greater than 7 mile(s):0
Sky conditions: mostly clear
Temperature: 87 F (31 C)
Heat index: 93.9 F (34.4 C):1
Dew Point: 73 F (23 C)
Relative Humidity: 62%
Pressure (altimeter): 29.74 in. Hg (1007 hPa)
ob: NGTA 210500Z 05005KT 9999 FEW020 31/23 Q1007
cycle: 5

Station Type Date Time Source
NGTA TAF 2019/10/20 18:13 UTC NOAA

TAF NGTA 201710Z 2018/2118 07007KT 9999 SCT020

Example: see airport list